Time;durP1;ratioP1;P1;durP2;ratioP2;P2;SDS_P1;SDS_P2;PMS_P1;PMS_P2;Temp;Humidity;BMP_temperature;BMP_pressure;BME280_temperature;BME280_humidity;BME280_pressure;Samples;Min_cycle;Max_cycle;Signal;HPM_P1;HPM_P2
2021/07/18 00:00:18;;;;;;;;;;;17.90;84.10;;;;;;5014784;28;19921;-63
2021/07/18 00:02:43;;;;;;;;;;;17.80;84.20;;;;;;5012978;28;20000;-63
2021/07/18 00:05:09;;;;;;;;;;;17.80;84.30;;;;;;5014651;28;19948;-62
2021/07/18 00:07:34;;;;;;;;;;;17.70;84.30;;;;;;5012655;28;19917;-62
2021/07/18 00:10:00;;;;;;;;;;;17.80;84.60;;;;;;5014450;28;19924;-62
2021/07/18 00:12:26;;;;;;;;;;;17.70;84.60;;;;;;5014595;28;19946;-62
2021/07/18 00:14:51;;;;;;;;;;;17.80;84.80;;;;;;5013868;28;19953;-62
2021/07/18 00:17:17;;;;;;;;;;;17.70;84.90;;;;;;5014169;28;19985;-63
2021/07/18 00:19:42;;;;;;;;;;;17.70;84.90;;;;;;5014405;28;19927;-63
2021/07/18 00:22:08;;;;;;;;;;;17.70;85.00;;;;;;5014070;28;19948;-62
2021/07/18 00:24:34;;;;;;;;;;;17.70;85.00;;;;;;5014480;28;20016;-62
2021/07/18 00:26:59;;;;;;;;;;;17.70;85.10;;;;;;5013987;28;20389;-63
2021/07/18 00:29:25;;;;;;;;;;;17.70;85.30;;;;;;5013666;28;20313;-62
2021/07/18 00:31:51;;;;;;;;;;;17.60;85.20;;;;;;5014707;28;19971;-58
2021/07/18 00:34:17;;;;;;;;;;;17.60;85.20;;;;;;5013713;28;20390;-60
2021/07/18 00:36:44;;;;;;;;;;;17.60;85.20;;;;;;5012533;28;20026;-58
2021/07/18 00:39:09;;;;;;;;;;;17.60;85.50;;;;;;5013887;28;19924;-58
2021/07/18 00:41:35;;;;;;;;;;;17.50;85.50;;;;;;5012192;28;20393;-59
2021/07/18 00:44:01;;;;;;;;;;;17.50;85.50;;;;;;5014046;28;19917;-58
2021/07/18 00:46:26;;;;;;;;;;;17.50;85.70;;;;;;5013957;28;20381;-58
2021/07/18 00:48:52;;;;;;;;;;;17.50;85.90;;;;;;5011900;28;19918;-58
2021/07/18 00:51:18;;;;;;;;;;;17.50;85.90;;;;;;5013699;28;19917;-58
2021/07/18 00:53:43;;;;;;;;;;;17.50;86.00;;;;;;5013973;28;19924;-58
2021/07/18 00:56:09;;;;;;;;;;;17.40;86.00;;;;;;5013141;28;19921;-58
2021/07/18 00:58:36;;;;;;;;;;;17.40;86.10;;;;;;5011967;28;19996;-58
2021/07/18 01:01:02;;;;;;;;;;;17.40;86.30;;;;;;5012107;28;20297;-59
2021/07/18 01:03:28;;;;;;;;;;;17.40;86.20;;;;;;5013638;28;19922;-58
2021/07/18 01:05:53;;;;;;;;;;;17.30;86.30;;;;;;5013606;28;20007;-58
2021/07/18 01:08:19;;;;;;;;;;;17.30;86.40;;;;;;5011787;28;19932;-58
2021/07/18 01:10:45;;;;;;;;;;;17.30;86.40;;;;;;5012276;28;19925;-59
2021/07/18 01:13:10;;;;;;;;;;;17.30;86.50;;;;;;5013334;28;20335;-58
2021/07/18 01:15:39;;;;;;;;;;;17.30;86.60;;;;;;5012898;28;19944;-59
2021/07/18 01:18:06;;;;;;;;;;;17.20;86.70;;;;;;4995430;28;19918;-58
2021/07/18 01:20:32;;;;;;;;;;;17.30;86.90;;;;;;5012915;28;19917;-58
2021/07/18 01:22:58;;;;;;;;;;;17.20;86.80;;;;;;5012098;28;19917;-58
2021/07/18 01:25:24;;;;;;;;;;;17.20;86.90;;;;;;5013224;28;19918;-58
2021/07/18 01:27:49;;;;;;;;;;;17.20;87.10;;;;;;5012444;28;19917;-59
2021/07/18 01:30:15;;;;;;;;;;;17.20;87.20;;;;;;5012848;28;19921;-59
2021/07/18 01:32:42;;;;;;;;;;;17.10;87.20;;;;;;5013074;28;20299;-58
2021/07/18 01:35:08;;;;;;;;;;;17.10;87.20;;;;;;5011218;28;20404;-58
2021/07/18 01:37:34;;;;;;;;;;;17.10;87.30;;;;;;5012601;28;20027;-59
2021/07/18 01:39:59;;;;;;;;;;;17.10;87.60;;;;;;5012427;28;19921;-59
2021/07/18 01:42:25;;;;;;;;;;;17.00;87.50;;;;;;5012862;28;19921;-58
2021/07/18 01:44:51;;;;;;;;;;;17.00;87.70;;;;;;5012907;28;19996;-58
2021/07/18 01:47:16;;;;;;;;;;;17.00;87.80;;;;;;5012248;28;19956;-59
2021/07/18 01:49:42;;;;;;;;;;;17.00;87.90;;;;;;5011332;28;19918;-58
2021/07/18 01:52:08;;;;;;;;;;;17.00;87.90;;;;;;5012754;28;19971;-58
2021/07/18 01:54:33;;;;;;;;;;;17.00;88.10;;;;;;5012281;28;19957;-58
2021/07/18 01:57:10;;;;;;;;;;;16.90;88.10;;;;;;5012263;28;19925;-58
2021/07/18 01:59:35;;;;;;;;;;;16.90;88.20;;;;;;5011839;28;20089;-58
2021/07/18 02:02:01;;;;;;;;;;;16.90;88.20;;;;;;5012474;28;19921;-58
2021/07/18 02:04:26;;;;;;;;;;;16.90;88.30;;;;;;5012231;28;19917;-60
2021/07/18 02:06:52;;;;;;;;;;;16.80;88.30;;;;;;5012102;28;19918;-58
2021/07/18 02:09:17;;;;;;;;;;;16.90;88.50;;;;;;5012218;28;19917;-58
2021/07/18 02:11:43;;;;;;;;;;;16.80;88.50;;;;;;5011978;28;19953;-59
2021/07/18 02:14:08;;;;;;;;;;;16.80;88.60;;;;;;5012326;28;19921;-58
2021/07/18 02:16:34;;;;;;;;;;;16.80;88.70;;;;;;5010961;28;19921;-58
2021/07/18 02:19:07;;;;;;;;;;;16.80;88.80;;;;;;5011550;28;19917;-58
2021/07/18 02:21:32;;;;;;;;;;;16.80;88.90;;;;;;5012240;28;20379;-58
2021/07/18 02:23:58;;;;;;;;;;;16.80;89.10;;;;;;5011287;28;20016;-59
2021/07/18 02:26:26;;;;;;;;;;;16.70;89.20;;;;;;5012152;28;19926;-58
2021/07/18 02:28:52;;;;;;;;;;;16.70;89.20;;;;;;5011571;28;19925;-58
2021/07/18 02:31:18;;;;;;;;;;;16.70;89.40;;;;;;5011687;28;20021;-58
2021/07/18 02:33:43;;;;;;;;;;;16.80;89.50;;;;;;5012028;28;19944;-58
2021/07/18 02:36:09;;;;;;;;;;;16.70;89.60;;;;;;5011927;28;19921;-58
2021/07/18 02:38:34;;;;;;;;;;;16.80;89.70;;;;;;5011306;28;19925;-59
2021/07/18 02:41:00;;;;;;;;;;;16.80;89.60;;;;;;5010680;28;19968;-58
2021/07/18 02:43:26;;;;;;;;;;;16.80;89.60;;;;;;5010191;28;19924;-59
2021/07/18 02:45:51;;;;;;;;;;;16.70;90.00;;;;;;5012032;28;19922;-58
2021/07/18 02:48:17;;;;;;;;;;;16.70;89.70;;;;;;5011800;28;19923;-58
2021/07/18 02:50:43;;;;;;;;;;;16.70;89.70;;;;;;5011271;28;19922;-58
2021/07/18 02:53:08;;;;;;;;;;;16.70;90.00;;;;;;5011584;28;19952;-58
2021/07/18 02:55:34;;;;;;;;;;;16.70;90.00;;;;;;5011777;28;19928;-58
2021/07/18 02:57:59;;;;;;;;;;;16.80;90.00;;;;;;5011143;28;19913;-58
2021/07/18 03:00:26;;;;;;;;;;;16.70;90.00;;;;;;5011654;28;19956;-58
2021/07/18 03:02:52;;;;;;;;;;;16.70;90.00;;;;;;5011397;28;19917;-59
2021/07/18 03:05:17;;;;;;;;;;;16.80;90.10;;;;;;5011550;28;20517;-59
2021/07/18 03:07:44;;;;;;;;;;;16.70;90.00;;;;;;5011452;28;19988;-58
2021/07/18 03:10:10;;;;;;;;;;;16.70;90.00;;;;;;5011155;28;20390;-58
2021/07/18 03:12:36;;;;;;;;;;;16.70;90.10;;;;;;5015252;28;19921;-58
2021/07/18 03:15:03;;;;;;;;;;;16.60;90.10;;;;;;5015588;28;19921;-61
2021/07/18 03:17:28;;;;;;;;;;;16.60;90.20;;;;;;5014886;28;19918;-58
2021/07/18 03:19:54;;;;;;;;;;;16.60;90.20;;;;;;5015347;28;19972;-58
2021/07/18 03:22:20;;;;;;;;;;;16.60;90.30;;;;;;5013772;28;19918;-58
2021/07/18 03:24:46;;;;;;;;;;;16.60;90.30;;;;;;5015172;28;19997;-58
2021/07/18 03:27:11;;;;;;;;;;;16.60;90.40;;;;;;5015225;28;19996;-58
2021/07/18 03:29:37;;;;;;;;;;;16.60;90.50;;;;;;5014860;28;20297;-58
2021/07/18 03:32:03;;;;;;;;;;;16.70;90.50;;;;;;5015329;28;19917;-58
2021/07/18 03:34:29;;;;;;;;;;;16.70;90.50;;;;;;5015302;28;20299;-58
2021/07/18 03:36:54;;;;;;;;;;;16.70;90.50;;;;;;5014386;28;19917;-58
2021/07/18 03:39:20;;;;;;;;;;;16.70;90.50;;;;;;5014769;28;19918;-58
2021/07/18 03:41:45;;;;;;;;;;;16.70;90.50;;;;;;5013521;28;19950;-58
2021/07/18 03:44:11;;;;;;;;;;;16.80;90.60;;;;;;5015198;28;19972;-58
2021/07/18 03:46:36;;;;;;;;;;;16.80;90.60;;;;;;5014846;28;19920;-58
2021/07/18 03:49:02;;;;;;;;;;;16.80;90.60;;;;;;5014347;28;19971;-59
2021/07/18 03:51:27;;;;;;;;;;;16.80;90.60;;;;;;5013550;28;19918;-58
2021/07/18 03:53:53;;;;;;;;;;;16.80;90.70;;;;;;5013647;28;20289;-58
2021/07/18 03:56:22;;;;;;;;;;;16.90;90.70;;;;;;5014400;28;20409;-58
2021/07/18 03:58:48;;;;;;;;;;;16.90;90.80;;;;;;5014633;28;20008;-58
2021/07/18 04:01:14;;;;;;;;;;;17.00;91.00;;;;;;5014441;28;19918;-59
2021/07/18 04:03:39;;;;;;;;;;;17.10;91.10;;;;;;5014754;28;19940;-58
2021/07/18 04:06:05;;;;;;;;;;;17.20;91.10;;;;;;5014683;28;19972;-59
2021/07/18 04:08:31;;;;;;;;;;;17.30;91.10;;;;;;5013853;28;20002;-58
2021/07/18 04:10:56;;;;;;;;;;;17.30;91.00;;;;;;5014715;28;19937;-58
2021/07/18 04:13:22;;;;;;;;;;;17.50;91.00;;;;;;5014083;28;19932;-59
2021/07/18 04:15:48;;;;;;;;;;;17.50;91.00;;;;;;5014485;28;19922;-58
2021/07/18 04:18:13;;;;;;;;;;;17.60;91.00;;;;;;5014160;28;19918;-58
2021/07/18 04:20:39;;;;;;;;;;;17.70;91.00;;;;;;5014012;28;19921;-59
2021/07/18 04:23:05;;;;;;;;;;;17.80;91.00;;;;;;5014248;28;19957;-58
2021/07/18 04:25:30;;;;;;;;;;;17.80;90.90;;;;;;5014359;28;19918;-58
2021/07/18 04:27:56;;;;;;;;;;;17.90;90.90;;;;;;5012400;28;20392;-58
2021/07/18 04:30:22;;;;;;;;;;;18.00;90.80;;;;;;5014056;28;20333;-58
2021/07/18 04:32:48;;;;;;;;;;;18.10;90.80;;;;;;5013974;28;20325;-59
2021/07/18 04:35:14;;;;;;;;;;;18.10;90.70;;;;;;5014048;28;20413;-58
2021/07/18 04:37:40;;;;;;;;;;;18.10;90.70;;;;;;5013829;28;20286;-58
2021/07/18 04:40:06;;;;;;;;;;;18.20;90.50;;;;;;5013626;28;19918;-59
2021/07/18 04:42:31;;;;;;;;;;;18.30;90.50;;;;;;5014043;28;19917;-58
2021/07/18 04:44:57;;;;;;;;;;;18.40;90.50;;;;;;5014063;28;19924;-58
2021/07/18 04:47:22;;;;;;;;;;;18.40;90.30;;;;;;5013207;28;20307;-58
2021/07/18 04:49:48;;;;;;;;;;;18.40;90.20;;;;;;5012391;28;20000;-58
2021/07/18 04:52:14;;;;;;;;;;;18.40;90.10;;;;;;5013451;28;19917;-61
2021/07/18 04:54:40;;;;;;;;;;;18.40;90.10;;;;;;5013761;28;19967;-58
2021/07/18 04:57:05;;;;;;;;;;;18.40;90.30;;;;;;5013349;28;19918;-58
2021/07/18 04:59:31;;;;;;;;;;;18.40;90.00;;;;;;5011866;28;19922;-59
2021/07/18 05:01:56;;;;;;;;;;;18.40;90.10;;;;;;5013679;28;20001;-59
2021/07/18 05:04:22;;;;;;;;;;;18.50;90.00;;;;;;5013735;28;19945;-59
2021/07/18 05:06:47;;;;;;;;;;;18.50;90.00;;;;;;5012900;28;19918;-59
2021/07/18 05:09:13;;;;;;;;;;;18.60;90.10;;;;;;5013363;28;19972;-58
2021/07/18 05:11:38;;;;;;;;;;;18.70;90.10;;;;;;5013423;28;19945;-58
2021/07/18 05:14:04;;;;;;;;;;;18.80;90.00;;;;;;5011484;28;19918;-58
2021/07/18 05:16:30;;;;;;;;;;;18.90;89.90;;;;;;5013238;28;19979;-58
2021/07/18 05:18:55;;;;;;;;;;;19.00;89.60;;;;;;5013093;28;19921;-58
2021/07/18 05:21:21;;;;;;;;;;;19.10;89.60;;;;;;5012875;28;20289;-59
2021/07/18 05:23:46;;;;;;;;;;;19.20;89.90;;;;;;5012985;28;19925;-59
2021/07/18 05:26:12;;;;;;;;;;;19.40;89.10;;;;;;5012934;28;20375;-60
2021/07/18 05:28:37;;;;;;;;;;;19.50;89.20;;;;;;5012677;28;19918;-60
2021/07/18 05:31:03;;;;;;;;;;;19.60;88.70;;;;;;5013198;28;20012;-59
2021/07/18 05:33:28;;;;;;;;;;;19.80;88.30;;;;;;5012062;28;19980;-58
2021/07/18 05:35:55;;;;;;;;;;;19.90;88.10;;;;;;5013019;28;19922;-58
2021/07/18 05:38:20;;;;;;;;;;;20.00;88.20;;;;;;5012669;28;20363;-59
2021/07/18 05:40:46;;;;;;;;;;;20.30;87.90;;;;;;5012461;28;19922;-58
2021/07/18 05:43:12;;;;;;;;;;;20.40;87.20;;;;;;5012837;28;19940;-58
2021/07/18 05:45:37;;;;;;;;;;;20.50;86.90;;;;;;5012375;28;19918;-59
2021/07/18 05:48:04;;;;;;;;;;;20.70;87.60;;;;;;5012487;28;19967;-59
2021/07/18 05:50:29;;;;;;;;;;;21.00;87.40;;;;;;5012618;28;20200;-58
2021/07/18 05:52:55;;;;;;;;;;;21.20;86.00;;;;;;5012224;28;19918;-59
2021/07/18 05:55:22;;;;;;;;;;;21.60;87.40;;;;;;5011188;28;19928;-59
2021/07/18 05:57:48;;;;;;;;;;;22.40;88.50;;;;;;5012437;28;19918;-59
2021/07/18 06:00:13;;;;;;;;;;;23.20;88.80;;;;;;5012127;28;19925;-59
2021/07/18 06:02:40;;;;;;;;;;;24.20;89.20;;;;;;5012583;28;19921;-59
2021/07/18 06:05:06;;;;;;;;;;;25.00;84.60;;;;;;5011881;28;19925;-59
2021/07/18 06:07:32;;;;;;;;;;;25.70;83.10;;;;;;5012267;28;19918;-59
2021/07/18 06:09:57;;;;;;;;;;;26.60;83.30;;;;;;5012420;28;20008;-59
2021/07/18 06:12:23;;;;;;;;;;;27.60;81.70;;;;;;5012113;28;20378;-59
2021/07/18 06:14:48;;;;;;;;;;;28.30;76.60;;;;;;5012204;28;20337;-60
2021/07/18 06:17:14;;;;;;;;;;;28.80;74.30;;;;;;5012035;28;19921;-59
2021/07/18 06:19:40;;;;;;;;;;;29.30;72.50;;;;;;5011420;28;19928;-60
2021/07/18 06:22:06;;;;;;;;;;;30.10;71.30;;;;;;5012329;28;19967;-60
2021/07/18 06:24:32;;;;;;;;;;;30.80;68.90;;;;;;5010369;28;19992;-60
2021/07/18 06:26:57;;;;;;;;;;;31.60;66.50;;;;;;5012004;28;19996;-60
2021/07/18 06:29:23;;;;;;;;;;;32.20;62.80;;;;;;5011665;28;20340;-60
2021/07/18 06:31:48;;;;;;;;;;;32.50;60.40;;;;;;5012289;28;20358;-66
2021/07/18 06:34:14;;;;;;;;;;;33.00;58.40;;;;;;5011969;28;19964;-66
2021/07/18 06:36:40;;;;;;;;;;;33.40;56.80;;;;;;5011044;28;19957;-65
2021/07/18 06:39:05;;;;;;;;;;;33.80;55.90;;;;;;5011937;28;19917;-66
2021/07/18 06:41:31;;;;;;;;;;;34.30;54.20;;;;;;5011994;28;19918;-66
2021/07/18 06:43:56;;;;;;;;;;;34.70;52.00;;;;;;5011543;28;19924;-66
2021/07/18 06:46:22;;;;;;;;;;;35.00;50.80;;;;;;5011027;28;19917;-67
2021/07/18 06:48:47;;;;;;;;;;;35.40;49.80;;;;;;5011588;28;20325;-66
2021/07/18 06:51:13;;;;;;;;;;;35.80;48.30;;;;;;5011516;28;20397;-66
2021/07/18 06:53:38;;;;;;;;;;;36.10;46.80;;;;;;5011849;28;19972;-66
2021/07/18 06:56:04;;;;;;;;;;;36.10;44.90;;;;;;5011700;28;20424;-66
2021/07/18 06:58:29;;;;;;;;;;;36.20;45.60;;;;;;5011299;28;19917;-66
2021/07/18 07:00:55;;;;;;;;;;;36.60;44.40;;;;;;5011670;28;19925;-66
2021/07/18 07:03:20;;;;;;;;;;;36.60;43.40;;;;;;5010060;28;19918;-66
2021/07/18 07:05:46;;;;;;;;;;;36.60;42.10;;;;;;5011666;28;19964;-66
2021/07/18 07:08:12;;;;;;;;;;;36.80;41.70;;;;;;5011357;28;19917;-67
2021/07/18 07:10:37;;;;;;;;;;;37.30;41.50;;;;;;5011225;28;19917;-66
2021/07/18 07:13:03;;;;;;;;;;;37.80;40.70;;;;;;5011746;28;20373;-66
2021/07/18 07:15:28;;;;;;;;;;;38.40;40.10;;;;;;5011631;28;19921;-67
2021/07/18 07:17:54;;;;;;;;;;;38.80;39.00;;;;;;5010842;28;19917;-68
2021/07/18 07:20:19;;;;;;;;;;;39.10;38.60;;;;;;5011635;28;19918;-67
2021/07/18 07:22:45;;;;;;;;;;;39.10;37.50;;;;;;5011226;28;19921;-67
2021/07/18 07:25:13;;;;;;;;;;;39.30;36.90;;;;;;5011039;28;19924;-66
2021/07/18 07:27:38;;;;;;;;;;;39.60;36.70;;;;;;5011309;28;20392;-66
2021/07/18 07:30:06;;;;;;;;;;;40.00;36.00;;;;;;5009520;28;19925;-64
2021/07/18 07:32:31;;;;;;;;;;;40.40;35.10;;;;;;5011258;28;19920;-65
2021/07/18 07:34:57;;;;;;;;;;;40.70;35.20;;;;;;5010091;28;19918;-65
2021/07/18 07:37:24;;;;;;;;;;;41.20;34.50;;;;;;5010733;28;19918;-65
2021/07/18 07:39:53;;;;;;;;;;;41.50;33.40;;;;;;5011246;28;19925;-64
2021/07/18 07:42:19;;;;;;;;;;;41.80;33.20;;;;;;5011051;28;19918;-64
2021/07/18 07:44:45;;;;;;;;;;;42.30;32.80;;;;;;5011246;28;19924;-65
2021/07/18 07:47:11;;;;;;;;;;;42.90;32.30;;;;;;5010992;28;19917;-66
2021/07/18 07:49:36;;;;;;;;;;;43.40;31.40;;;;;;5010673;28;19951;-66
2021/07/18 07:52:02;;;;;;;;;;;43.80;30.80;;;;;;5011376;28;19921;-67
2021/07/18 07:54:28;;;;;;;;;;;43.90;29.70;;;;;;5011333;28;20318;-67
2021/07/18 07:56:53;;;;;;;;;;;43.10;29.60;;;;;;5011236;28;20332;-66
2021/07/18 07:59:19;;;;;;;;;;;43.20;30.00;;;;;;5014701;28;19921;-66
2021/07/18 08:01:44;;;;;;;;;;;43.10;29.40;;;;;;5014263;28;19949;-65
2021/07/18 08:04:10;;;;;;;;;;;42.20;29.10;;;;;;5014904;28;19917;-66
2021/07/18 08:06:35;;;;;;;;;;;41.90;30.10;;;;;;5012972;28;19971;-67
2021/07/18 08:09:01;;;;;;;;;;;42.90;30.40;;;;;;5013830;28;19943;-66
2021/07/18 08:11:26;;;;;;;;;;;44.00;30.00;;;;;;5013411;28;19917;-67
2021/07/18 08:13:52;;;;;;;;;;;44.40;28.90;;;;;;5013055;28;19940;-66
2021/07/18 08:16:17;;;;;;;;;;;44.60;28.70;;;;;;5013977;28;19928;-66
2021/07/18 08:18:43;;;;;;;;;;;44.20;27.60;;;;;;5011865;28;19928;-65
2021/07/18 08:21:08;;;;;;;;;;;43.20;28.50;;;;;;5013387;28;19924;-66
2021/07/18 08:23:34;;;;;;;;;;;42.40;28.60;;;;;;5013325;28;19924;-66
2021/07/18 08:26:00;;;;;;;;;;;41.30;28.50;;;;;;5014149;28;19917;-65
2021/07/18 08:28:26;;;;;;;;;;;39.50;28.50;;;;;;5013217;28;19917;-68
2021/07/18 08:30:51;;;;;;;;;;;37.40;29.40;;;;;;5013795;28;20597;-66
2021/07/18 08:33:17;;;;;;;;;;;36.40;32.20;;;;;;5012625;28;19984;-66
2021/07/18 08:35:42;;;;;;;;;;;37.30;33.60;;;;;;5013422;28;19925;-66
2021/07/18 08:38:08;;;;;;;;;;;38.20;32.20;;;;;;5013543;28;19968;-67
2021/07/18 08:40:35;;;;;;;;;;;37.30;30.30;;;;;;5013772;28;19918;-67
2021/07/18 08:43:01;;;;;;;;;;;37.40;33.50;;;;;;5013361;28;20426;-66
2021/07/18 08:45:26;;;;;;;;;;;38.60;32.80;;;;;;5012634;28;20414;-67
2021/07/18 08:47:52;;;;;;;;;;;38.50;31.20;;;;;;5011746;28;19918;-66
2021/07/18 08:50:17;;;;;;;;;;;37.10;30.10;;;;;;5011985;28;20067;-67
2021/07/18 08:53:00;;;;;;;;;;;35.80;33.10;;;;;;5012351;28;19921;-66
2021/07/18 08:55:26;;;;;;;;;;;36.60;34.50;;;;;;4996672;28;19922;-67
2021/07/18 08:57:52;;;;;;;;;;;36.60;32.80;;;;;;5013223;28;19980;-66
2021/07/18 09:00:19;;;;;;;;;;;35.70;32.80;;;;;;5011699;28;19925;-68
2021/07/18 09:02:44;;;;;;;;;;;37.10;36.20;;;;;;5013423;28;19925;-68
2021/07/18 09:05:10;;;;;;;;;;;38.90;34.30;;;;;;5013530;28;20289;-67
2021/07/18 09:07:43;;;;;;;;;;;40.40;32.60;;;;;;5009983;28;19932;-66
2021/07/18 09:10:10;;;;;;;;;;;39.50;30.30;;;;;;5009622;28;19922;-67
2021/07/18 09:12:35;;;;;;;;;;;37.50;30.20;;;;;;5012127;28;20382;-67
2021/07/18 09:15:01;;;;;;;;;;;36.80;33.20;;;;;;5012035;28;19990;-66
2021/07/18 09:17:33;;;;;;;;;;;36.50;32.50;;;;;;5012888;28;19921;-67
2021/07/18 09:20:10;;;;;;;;;;;36.50;34.10;;;;;;5011925;28;20304;-68
2021/07/18 09:22:36;;;;;;;;;;;38.50;34.80;;;;;;5013195;28;19921;-68
2021/07/18 09:25:02;;;;;;;;;;;40.50;33.00;;;;;;5012718;28;19926;-68
2021/07/18 09:27:28;;;;;;;;;;;41.70;31.60;;;;;;5010582;28;19917;-68
2021/07/18 09:29:55;;;;;;;;;;;43.40;31.40;;;;;;5012040;28;20337;-68
2021/07/18 09:32:24;;;;;;;;;;;44.50;29.60;;;;;;5013048;28;19913;-66
2021/07/18 09:34:50;;;;;;;;;;;42.80;27.70;;;;;;5013063;28;19965;-66
2021/07/18 09:37:17;;;;;;;;;;;39.20;28.40;;;;;;5012331;28;19980;-65
2021/07/18 09:39:49;;;;;;;;;;;36.30;30.00;;;;;;5012949;28;19921;-66
2021/07/18 09:42:33;;;;;;;;;;;36.70;34.20;;;;;;5013026;28;19975;-67
2021/07/18 09:45:00;;;;;;;;;;;39.20;34.20;;;;;;5012518;28;19917;-68
2021/07/18 09:47:25;;;;;;;;;;;42.30;32.20;;;;;;5012453;28;19925;-67
2021/07/18 09:49:51;;;;;;;;;;;44.60;30.60;;;;;;5012096;28;20285;-68
2021/07/18 09:52:17;;;;;;;;;;;46.20;28.60;;;;;;5012846;28;19918;-68
2021/07/18 09:54:43;;;;;;;;;;;45.40;27.70;;;;;;5012798;28;19928;-67
2021/07/18 09:57:11;;;;;;;;;;;43.90;27.10;;;;;;5011964;28;20020;-67
2021/07/18 09:59:38;;;;;;;;;;;41.90;27.50;;;;;;5012615;28;19941;-66
2021/07/18 10:02:08;;;;;;;;;;;40.70;28.30;;;;;;5012067;28;20023;-66
2021/07/18 10:04:40;;;;;;;;;;;39.20;28.80;;;;;;5012712;28;19918;-66
2021/07/18 10:07:06;;;;;;;;;;;38.00;29.30;;;;;;5008717;28;20012;-66
2021/07/18 10:09:33;;;;;;;;;;;38.90;32.60;;;;;;5009962;28;19940;-67
2021/07/18 10:11:58;;;;;;;;;;;41.50;32.10;;;;;;5009797;28;20075;-67
2021/07/18 10:14:24;;;;;;;;;;;44.20;30.60;;;;;;5011409;28;20429;-66
2021/07/18 10:16:52;;;;;;;;;;;44.80;28.30;;;;;;5009538;28;20124;-67
2021/07/18 10:19:18;;;;;;;;;;;44.80;28.50;;;;;;5010928;28;19921;-68
2021/07/18 10:21:44;;;;;;;;;;;46.10;28.50;;;;;;5011056;28;19917;-69
2021/07/18 10:24:11;;;;;;;;;;;47.70;28.00;;;;;;5011723;28;19925;-68
2021/07/18 10:26:37;;;;;;;;;;;48.40;26.50;;;;;;5010952;28;20020;-67
2021/07/18 10:29:03;;;;;;;;;;;48.50;26.20;;;;;;5010316;28;20007;-68
2021/07/18 10:31:59;;;;;;;;;;;48.50;26.30;;;;;;5010280;28;19924;-68
2021/07/18 10:34:28;;;;;;;;;;;46.80;25.50;;;;;;5006408;28;19940;-66
2021/07/18 10:36:54;;;;;;;;;;;46.80;26.60;;;;;;5010496;28;19961;-67
2021/07/18 10:39:28;;;;;;;;;;;46.80;26.00;;;;;;5010202;28;19945;-66
2021/07/18 10:41:54;;;;;;;;;;;47.30;26.60;;;;;;5010310;28;19929;-67
2021/07/18 10:44:20;;;;;;;;;;;46.50;25.20;;;;;;5011437;28;19918;-67
2021/07/18 10:46:46;;;;;;;;;;;44.20;26.40;;;;;;5008855;28;19913;-66
2021/07/18 10:49:13;;;;;;;;;;;44.00;28.00;;;;;;5010273;28;20362;-66
2021/07/18 10:51:39;;;;;;;;;;;43.60;26.90;;;;;;5010711;28;19920;-65
2021/07/18 10:54:12;;;;;;;;;;;41.70;26.60;;;;;;5010933;28;20345;-65
2021/07/18 10:56:42;;;;;;;;;;;39.60;27.30;;;;;;5010777;28;19997;-66
2021/07/18 10:59:07;;;;;;;;;;;39.80;29.90;;;;;;5010708;28;19944;-66
2021/07/18 11:01:35;;;;;;;;;;;42.30;30.40;;;;;;5011453;28;20377;-66
2021/07/18 11:04:00;;;;;;;;;;;45.10;29.40;;;;;;5011110;28;19917;-66
2021/07/18 11:06:30;;;;;;;;;;;46.00;27.20;;;;;;5008179;28;20393;-67
2021/07/18 11:09:17;;;;;;;;;;;46.60;26.80;;;;;;5008470;28;19918;-66
2021/07/18 11:11:50;;;;;;;;;;;45.40;25.80;;;;;;5011352;28;19918;-65
2021/07/18 11:14:23;;;;;;;;;;;43.00;26.70;;;;;;5011475;28;20405;-59
2021/07/18 11:16:50;;;;;;;;;;;43.70;27.80;;;;;;5009414;28;19922;-60
2021/07/18 11:19:34;;;;;;;;;;;44.90;26.90;;;;;;5010269;28;19968;-59
2021/07/18 11:21:59;;;;;;;;;;;45.40;26.20;;;;;;5009425;28;19925;-59
2021/07/18 11:24:44;;;;;;;;;;;45.90;26.50;;;;;;5009499;28;19917;-59
2021/07/18 11:27:40;;;;;;;;;;;45.60;25.60;;;;;;5009990;28;19968;-59
2021/07/18 11:30:26;;;;;;;;;;;42.90;25.20;;;;;;5004452;28;20309;-59
2021/07/18 11:32:53;;;;;;;;;;;39.10;26.30;;;;;;5012283;28;20028;-59
2021/07/18 11:35:19;;;;;;;;;;;37.10;29.10;;;;;;5014167;28;19922;-59
2021/07/18 11:37:47;;;;;;;;;;;37.20;29.90;;;;;;5013880;28;20008;-59
2021/07/18 11:40:12;;;;;;;;;;;37.20;29.50;;;;;;5011579;28;19933;-59
2021/07/18 11:42:38;;;;;;;;;;;36.90;30.00;;;;;;5013789;28;19924;-59
2021/07/18 11:45:07;;;;;;;;;;;36.70;30.20;;;;;;5014585;28;19913;-59
2021/07/18 11:47:33;;;;;;;;;;;36.60;30.00;;;;;;5013457;28;19932;-60
2021/07/18 11:49:59;;;;;;;;;;;35.70;30.00;;;;;;5011699;28;19924;-58
2021/07/18 11:52:26;;;;;;;;;;;34.50;31.10;;;;;;5014382;28;19921;-58
2021/07/18 11:54:53;;;;;;;;;;;33.90;32.80;;;;;;5012616;28;20393;-59
2021/07/18 11:57:19;;;;;;;;;;;33.60;33.40;;;;;;5013951;28;19926;-59
2021/07/18 11:59:45;;;;;;;;;;;33.30;33.90;;;;;;5013512;28;19963;-60
2021/07/18 12:02:12;;;;;;;;;;;33.10;34.40;;;;;;5013746;28;19918;-59
2021/07/18 12:04:38;;;;;;;;;;;32.70;34.30;;;;;;5014303;28;19964;-58
2021/07/18 12:07:05;;;;;;;;;;;32.30;35.20;;;;;;5011060;28;19922;-61
2021/07/18 12:09:37;;;;;;;;;;;32.20;35.70;;;;;;5013718;28;19925;-59
2021/07/18 12:12:04;;;;;;;;;;;32.10;36.10;;;;;;5011421;28;20172;-59
2021/07/18 12:14:34;;;;;;;;;;;32.30;36.30;;;;;;5014182;28;20004;-59
2021/07/18 12:17:00;;;;;;;;;;;32.70;36.00;;;;;;5013558;28;20024;-59
2021/07/18 12:19:27;;;;;;;;;;;32.90;34.80;;;;;;5010889;28;19914;-59
2021/07/18 12:21:53;;;;;;;;;;;32.60;34.80;;;;;;5013946;28;19924;-59
2021/07/18 12:24:29;;;;;;;;;;;32.20;35.30;;;;;;5013416;28;19937;-59
2021/07/18 12:26:57;;;;;;;;;;;31.90;35.30;;;;;;5013657;28;19945;-59
2021/07/18 12:29:23;;;;;;;;;;;31.50;36.20;;;;;;5006345;28;19921;-59
2021/07/18 12:31:49;;;;;;;;;;;31.20;36.40;;;;;;5032595;23;19925;-62
2021/07/18 12:34:16;;;;;;;;;;;30.80;36.90;;;;;;5014230;28;19918;-62
2021/07/18 12:37:02;;;;;;;;;;;30.60;37.40;;;;;;5012280;28;19922;-62
2021/07/18 12:39:29;;;;;;;;;;;30.30;37.60;;;;;;4996367;28;20285;-61
2021/07/18 12:41:56;;;;;;;;;;;29.80;38.40;;;;;;4996566;28;20009;-62
2021/07/18 12:44:22;;;;;;;;;;;29.60;39.20;;;;;;4994246;28;19921;-62
2021/07/18 12:46:48;;;;;;;;;;;29.50;39.90;;;;;;4976304;28;19918;-64
2021/07/18 12:49:15;;;;;;;;;;;29.60;40.00;;;;;;4994253;28;19925;-62
2021/07/18 12:51:41;;;;;;;;;;;29.90;39.90;;;;;;4993866;28;19918;-61
2021/07/18 12:54:07;;;;;;;;;;;30.00;40.00;;;;;;4993880;28;19929;-62
2021/07/18 12:56:33;;;;;;;;;;;29.90;40.10;;;;;;4993417;28;19981;-64
2021/07/18 12:58:58;;;;;;;;;;;29.80;40.20;;;;;;4995074;28;19917;-63
2021/07/18 13:01:31;;;;;;;;;;;29.80;40.60;;;;;;5004382;28;19922;-63
2021/07/18 13:04:07;;;;;;;;;;;29.60;40.70;;;;;;5002868;28;20447;-61
2021/07/18 13:06:40;;;;;;;;;;;29.50;41.00;;;;;;5002690;28;20401;-61
2021/07/18 13:09:17;;;;;;;;;;;29.40;41.30;;;;;;5002276;28;19917;-61
2021/07/18 13:11:42;;;;;;;;;;;29.30;41.10;;;;;;5000849;28;19930;-63
2021/07/18 13:14:21;;;;;;;;;;;29.10;41.40;;;;;;5003803;28;19964;-62
2021/07/18 13:16:47;;;;;;;;;;;28.70;41.90;;;;;;5000831;28;19929;-61
2021/07/18 13:19:16;;;;;;;;;;;28.70;43.10;;;;;;5003192;28;19921;-62
2021/07/18 13:21:42;;;;;;;;;;;28.70;43.60;;;;;;5001184;28;20382;-62
2021/07/18 13:24:08;;;;;;;;;;;28.80;43.50;;;;;;5003644;28;19941;-62
2021/07/18 13:26:33;;;;;;;;;;;28.90;43.70;;;;;;5003000;28;19922;-62
2021/07/18 13:29:16;;;;;;;;;;;28.90;43.90;;;;;;5001358;28;20290;-61
2021/07/18 13:31:43;;;;;;;;;;;29.00;44.40;;;;;;4985801;28;19926;-62
2021/07/18 13:34:08;;;;;;;;;;;29.00;44.20;;;;;;5001398;28;19993;-61
2021/07/18 13:36:34;;;;;;;;;;;29.00;44.20;;;;;;5002492;28;20021;-62
2021/07/18 13:39:10;;;;;;;;;;;28.70;44.60;;;;;;4985891;28;19918;-62
2021/07/18 13:41:36;;;;;;;;;;;28.80;45.60;;;;;;5002780;28;19918;-62
2021/07/18 13:44:02;;;;;;;;;;;28.80;45.50;;;;;;5003609;28;19921;-61
2021/07/18 13:46:29;;;;;;;;;;;28.80;45.50;;;;;;5001503;28;19918;-62
2021/07/18 13:48:54;;;;;;;;;;;28.80;45.60;;;;;;5002090;28;19925;-62
2021/07/18 13:51:26;;;;;;;;;;;28.70;45.50;;;;;;4987082;28;20321;-61
2021/07/18 13:53:52;;;;;;;;;;;28.70;46.40;;;;;;5002020;28;19918;-62
2021/07/18 13:56:17;;;;;;;;;;;28.80;46.50;;;;;;5001115;28;19980;-61
2021/07/18 13:58:43;;;;;;;;;;;28.60;46.30;;;;;;5002460;28;19925;-61
2021/07/18 14:01:08;;;;;;;;;;;28.40;46.40;;;;;;4985970;28;20302;-61
2021/07/18 14:03:34;;;;;;;;;;;28.30;46.90;;;;;;5002121;28;20381;-62
2021/07/18 14:05:59;;;;;;;;;;;28.20;46.90;;;;;;5002597;28;19965;-61
2021/07/18 14:08:25;;;;;;;;;;;28.10;47.70;;;;;;5000458;28;20633;-62
2021/07/18 14:10:50;;;;;;;;;;;28.10;47.80;;;;;;5003069;28;19917;-62
2021/07/18 14:13:16;;;;;;;;;;;28.00;47.80;;;;;;5011904;28;20006;-62